createdAt,value
2022-11-06T00:03:17.252Z,100923.44
2022-11-06T00:08:14.460Z,100925.59
2022-11-06T00:13:12.416Z,100925.78
2022-11-06T00:18:09.677Z,100913.03
2022-11-06T00:23:06.641Z,100918.97
2022-11-06T00:28:06.171Z,100920.31
2022-11-06T00:33:05.703Z,100918.06
2022-11-06T00:38:02.434Z,100913.72
2022-11-06T00:42:59.097Z,100906.28
2022-11-06T00:47:58.354Z,100916.94
2022-11-06T00:52:55.582Z,100911.88
2022-11-06T00:57:52.367Z,100900.66
2022-11-06T01:02:49.098Z,100911.28
2022-11-06T01:07:45.783Z,100913.44
2022-11-06T01:12:43.041Z,100917.84
2022-11-06T01:17:39.656Z,100910.63
2022-11-06T01:22:36.470Z,100930.25
2022-11-06T01:27:37.675Z,100918.91
2022-11-06T01:32:35.464Z,100920.00
2022-11-06T01:37:32.243Z,100920.44
2022-11-06T01:42:28.888Z,100906.81
2022-11-06T01:47:29.150Z,100930.53
2022-11-06T01:52:27.092Z,100948.91
2022-11-06T01:57:24.156Z,100938.56
2022-11-06T02:02:20.896Z,100934.50
2022-11-06T02:07:18.232Z,100935.81
2022-11-06T02:12:23.469Z,100933.09
2022-11-06T02:17:24.921Z,100932.13
2022-11-06T02:22:36.707Z,100938.69
2022-11-06T02:27:36.408Z,100938.34
2022-11-06T02:32:37.316Z,100951.22
2022-11-06T02:37:36.432Z,100955.28
2022-11-06T02:42:36.067Z,100960.00
2022-11-06T02:47:34.223Z,100957.59
2022-11-06T02:52:32.619Z,100968.09
2022-11-06T02:57:35.002Z,100973.44
2022-11-06T03:02:34.307Z,100971.09
2022-11-06T03:07:34.929Z,100971.50
2022-11-06T03:12:33.280Z,100966.16
2022-11-06T03:17:37.086Z,100969.91
2022-11-06T03:22:39.060Z,100981.59
2022-11-06T03:27:38.461Z,100976.97
2022-11-06T03:32:39.454Z,100981.13
2022-11-06T03:37:39.889Z,100983.28
2022-11-06T03:42:37.256Z,100979.53
2022-11-06T03:47:37.477Z,100989.88
2022-11-06T03:52:37.605Z,100998.25
2022-11-06T03:57:38.134Z,100988.50
2022-11-06T04:02:37.479Z,100990.00
2022-11-06T04:07:36.435Z,100991.63
2022-11-06T04:12:53.740Z,100986.16
2022-11-06T04:17:51.005Z,100981.59
2022-11-06T04:22:55.710Z,100987.72
2022-11-06T04:27:59.577Z,100983.00
2022-11-06T04:33:07.313Z,101000.66
2022-11-06T04:38:07.786Z,100975.00
2022-11-06T04:43:07.784Z,100989.00
2022-11-06T04:48:06.215Z,101004.03
2022-11-06T04:53:03.963Z,100983.50
2022-11-06T04:58:02.241Z,100992.53
2022-11-06T05:03:01.962Z,100997.13
2022-11-06T05:07:59.314Z,101000.69
2022-11-06T05:12:57.755Z,101007.41
2022-11-06T05:17:54.363Z,101015.41
2022-11-06T05:23:00.399Z,101020.59
2022-11-06T05:27:58.060Z,101028.06
2022-11-06T05:32:55.085Z,101043.88
2022-11-06T05:37:51.892Z,101030.09
2022-11-06T05:42:48.671Z,101055.69
2022-11-06T05:47:47.052Z,101061.78
2022-11-06T05:52:43.742Z,101070.44
2022-11-06T05:57:40.671Z,101077.38
2022-11-06T06:02:39.343Z,101084.47
2022-11-06T06:07:38.244Z,101092.38
2022-11-06T06:12:35.004Z,101100.75
2022-11-06T06:17:31.768Z,101104.19
2022-11-06T06:22:28.520Z,101119.03
2022-11-06T06:27:27.194Z,101116.50
2022-11-06T06:32:23.983Z,101119.22
2022-11-06T06:37:20.636Z,101120.78
2022-11-06T06:42:17.455Z,101132.97
2022-11-06T06:47:16.364Z,101133.50
2022-11-06T06:52:13.124Z,101132.00
2022-11-06T06:57:11.183Z,101132.69
2022-11-06T07:02:09.273Z,101135.59
2022-11-06T07:07:06.816Z,101139.31
2022-11-06T07:12:03.930Z,101146.56
2022-11-06T07:17:00.472Z,101122.50
2022-11-06T07:21:57.069Z,101147.03
2022-11-06T07:26:54.613Z,101157.94
2022-11-06T07:31:51.722Z,101153.09
2022-11-06T07:36:48.746Z,101151.44
2022-11-06T07:41:45.387Z,101160.81
2022-11-06T07:46:43.147Z,101160.31
2022-11-06T07:51:42.152Z,101151.44
2022-11-06T07:56:39.007Z,101152.72
2022-11-06T08:01:35.949Z,101165.06
2022-11-06T08:06:33.762Z,101158.44
2022-11-06T08:11:30.681Z,101144.59
2022-11-06T08:16:32.732Z,101161.31
2022-11-06T08:21:29.379Z,101168.59
2022-11-06T08:26:27.127Z,101170.91
2022-11-06T08:31:24.205Z,101176.25
2022-11-06T08:36:20.961Z,101180.13
2022-11-06T08:41:17.804Z,101179.09
2022-11-06T08:46:15.333Z,101175.19
2022-11-06T08:51:12.147Z,101183.59
2022-11-06T08:56:08.884Z,101179.31
2022-11-06T09:01:08.302Z,101183.38
2022-11-06T09:06:06.319Z,101172.56
2022-11-06T09:11:06.843Z,101178.97
2022-11-06T09:16:03.909Z,101192.81
2022-11-06T09:21:00.664Z,101191.66
2022-11-06T09:25:57.953Z,101185.44
2022-11-06T09:30:57.035Z,101180.84
2022-11-06T09:35:53.775Z,101191.41
2022-11-06T09:40:52.495Z,101174.13
2022-11-06T09:45:54.879Z,101184.94
2022-11-06T09:50:52.929Z,101174.16
2022-11-06T09:55:49.600Z,101162.09
2022-11-06T10:00:47.008Z,101165.44
2022-11-06T10:05:45.498Z,101160.38
2022-11-06T10:10:45.320Z,101157.38
2022-11-06T10:15:45.370Z,101152.06
2022-11-06T10:20:49.644Z,101155.28
2022-11-06T10:25:52.650Z,101139.25
2022-11-06T10:30:53.146Z,101137.50
2022-11-06T10:35:52.087Z,101133.06
2022-11-06T10:40:53.250Z,101127.16
2022-11-06T10:45:52.637Z,101123.53
2022-11-06T10:50:58.528Z,101110.09
2022-11-06T10:56:11.165Z,101108.66
2022-11-06T11:01:12.331Z,101081.16
2022-11-06T11:06:09.204Z,101098.09
2022-11-06T11:11:15.290Z,101077.53
2022-11-06T11:16:14.058Z,101087.19
2022-11-06T11:21:25.539Z,101087.34
2022-11-06T11:26:25.302Z,101073.06
2022-11-06T11:31:28.293Z,101060.72
2022-11-06T11:36:25.282Z,101083.50
2022-11-06T11:41:23.825Z,101079.28
2022-11-06T11:46:20.655Z,101078.75
2022-11-06T11:51:34.689Z,101076.25
2022-11-06T11:56:58.182Z,101078.28
2022-11-06T12:01:49.579Z,101081.75
2022-11-06T12:06:50.102Z,101071.63
2022-11-06T12:11:47.789Z,101078.84
2022-11-06T12:16:47.852Z,101081.91
2022-11-06T12:21:46.042Z,101075.94
2022-11-06T12:26:45.317Z,101084.03
2022-11-06T12:31:47.350Z,101082.28
2022-11-06T12:36:46.179Z,101085.13
2022-11-06T12:41:44.971Z,101082.44
2022-11-06T12:46:48.307Z,101082.34
2022-11-06T12:51:51.111Z,101086.28
2022-11-06T12:56:53.691Z,101091.22
2022-11-06T13:01:56.625Z,101091.41
2022-11-06T13:07:11.170Z,101093.66
2022-11-06T13:12:12.807Z,101090.13
2022-11-06T13:17:12.360Z,101098.75
2022-11-06T13:22:15.616Z,101094.91
2022-11-06T13:27:17.463Z,101099.41
2022-11-06T13:32:18.107Z,101103.75
2022-11-06T13:37:17.502Z,101109.84
2022-11-06T13:42:19.402Z,101113.34
2022-11-06T13:47:22.747Z,101116.56
2022-11-06T13:52:25.307Z,101115.63
2022-11-06T13:57:33.808Z,101102.72
2022-11-06T14:02:49.170Z,101109.41
2022-11-06T14:07:46.703Z,101116.56
2022-11-06T14:12:46.205Z,101118.28
2022-11-06T14:17:53.720Z,101122.97
2022-11-06T14:22:50.433Z,101112.84
2022-11-06T14:28:07.923Z,101132.22
2022-11-06T14:33:09.429Z,101140.00
2022-11-06T14:38:16.864Z,101144.38
2022-11-06T14:43:19.189Z,101144.78
2022-11-06T14:48:27.350Z,101145.56
2022-11-06T14:53:25.946Z,101144.34
2022-11-06T14:58:24.863Z,101141.16
2022-11-06T15:03:28.130Z,101148.03
2022-11-06T15:08:43.436Z,101156.31
2022-11-06T15:13:40.256Z,101151.59
2022-11-06T15:18:38.430Z,101151.84
2022-11-06T15:23:40.597Z,101161.13
2022-11-06T15:28:43.131Z,101171.97
2022-11-06T15:33:50.464Z,101162.28
2022-11-06T15:38:51.081Z,101182.75
2022-11-06T15:43:48.989Z,101188.63
2022-11-06T15:48:46.445Z,101202.09
2022-11-06T15:53:43.002Z,101208.72
2022-11-06T15:58:39.623Z,101218.25
2022-11-06T16:03:44.089Z,101219.53
2022-11-06T16:08:41.768Z,101230.75
2022-11-06T16:13:38.507Z,101242.66
2022-11-06T16:18:39.936Z,101258.09
2022-11-06T16:23:39.429Z,101260.56
2022-11-06T16:28:45.074Z,101268.59
2022-11-06T16:33:59.391Z,101273.81
2022-11-06T16:39:17.305Z,101283.50
2022-11-06T16:44:29.637Z,101291.88
2022-11-06T16:49:32.388Z,101298.91
2022-11-06T16:54:30.803Z,101308.66
2022-11-06T16:59:28.223Z,101307.53
2022-11-06T17:04:29.183Z,101321.00
2022-11-06T17:09:30.035Z,101315.34
2022-11-06T17:14:27.196Z,101325.47
2022-11-06T17:19:26.835Z,101332.84
2022-11-06T17:24:39.045Z,101339.31
2022-11-06T17:29:36.496Z,101344.06
2022-11-06T17:34:34.205Z,101352.91
2022-11-06T17:39:31.268Z,101353.22
2022-11-06T17:44:30.022Z,101358.00
2022-11-06T17:49:26.678Z,101366.13
2022-11-06T17:54:27.591Z,101360.75
2022-11-06T17:59:24.486Z,101367.09
2022-11-06T18:04:22.570Z,101374.81
2022-11-06T18:09:19.900Z,101380.47
2022-11-06T18:14:19.474Z,101374.38
2022-11-06T18:19:17.347Z,101375.22
2022-11-06T18:24:13.953Z,101376.16
2022-11-06T18:29:12.945Z,101381.22
2022-11-06T18:34:16.672Z,101385.41
2022-11-06T18:39:16.466Z,101389.56
2022-11-06T18:44:14.619Z,101392.22
2022-11-06T18:49:15.178Z,101399.47
2022-11-06T18:54:12.596Z,101404.78
2022-11-06T18:59:13.563Z,101408.38
2022-11-06T19:04:10.475Z,101404.94
2022-11-06T19:09:08.276Z,101394.63
2022-11-06T19:14:05.186Z,101416.72
2022-11-06T19:24:05.614Z,101418.34
2022-11-06T19:29:07.642Z,101412.63
2022-11-06T19:34:07.125Z,101429.06
2022-11-06T19:39:04.095Z,101441.81
2022-11-06T19:44:00.836Z,101441.88
2022-11-06T19:49:00.911Z,101450.06
2022-11-06T19:54:01.051Z,101449.38
2022-11-06T19:59:01.724Z,101456.13
2022-11-06T20:04:00.744Z,101464.34
2022-11-06T20:08:57.527Z,101474.47
2022-11-06T20:13:54.301Z,101475.44
2022-11-06T20:18:53.738Z,101484.31
2022-11-06T20:23:54.412Z,101478.09
2022-11-06T20:28:51.030Z,101487.09
2022-11-06T20:33:51.066Z,101495.06
2022-11-06T20:38:47.920Z,101492.91
2022-11-06T20:43:55.345Z,101498.63
2022-11-06T20:48:54.122Z,101495.66
2022-11-06T20:53:53.968Z,101500.50
2022-11-06T20:58:53.091Z,101503.75
2022-11-06T21:03:50.540Z,101505.06
2022-11-06T21:08:47.889Z,101507.53
2022-11-06T21:13:51.056Z,101507.09
2022-11-06T21:18:49.660Z,101506.31
2022-11-06T21:23:49.691Z,101504.47
2022-11-06T21:28:47.733Z,101507.09
2022-11-06T21:33:48.231Z,101496.97
2022-11-06T21:38:49.307Z,101509.41
2022-11-06T21:43:47.459Z,101508.91
2022-11-06T21:48:48.416Z,101521.28
2022-11-06T21:54:08.814Z,101520.16
2022-11-06T21:59:06.186Z,101518.91
2022-11-06T22:04:09.046Z,101519.56
2022-11-06T22:09:13.765Z,101522.59
2022-11-06T22:14:14.532Z,101519.44
2022-11-06T22:19:14.793Z,101533.47
2022-11-06T22:24:14.970Z,101531.44
2022-11-06T22:29:15.096Z,101533.25
2022-11-06T22:34:13.798Z,101537.19
2022-11-06T22:39:10.877Z,101538.75
2022-11-06T22:44:09.505Z,101535.19
2022-11-06T22:49:09.226Z,101552.00
2022-11-06T22:54:09.065Z,101542.94
2022-11-06T22:59:07.842Z,101555.28
2022-11-06T23:04:15.208Z,101554.84
2022-11-06T23:09:14.499Z,101554.94
2022-11-06T23:14:11.198Z,101573.38
2022-11-06T23:19:09.774Z,101572.41
2022-11-06T23:24:10.241Z,101585.38
2022-11-06T23:29:08.380Z,101593.22
2022-11-06T23:34:05.593Z,101591.91
2022-11-06T23:39:02.350Z,101601.28
2022-11-06T23:44:04.256Z,101594.09
2022-11-06T23:49:00.899Z,101609.34
2022-11-06T23:53:57.841Z,101607.25
2022-11-06T23:58:54.525Z,101615.00
